»·PEaware :: N5205X KSNA-KAVX

N5205X :: KSNA-KAVX

FLIGHT INFORMATION

Flight Status: Arrived
Operator: Privately registered:
United States
More flights under this callsign
Pilot: Martin B. (29991)
Aircraft: CIRRUS SR-22
(SR22)
More flights by this aircraft type
Origin: KSNA John Wayne-Orange Co
United States
Destination: KAVX Catalina
United States
More flights between these airports :: More routes between these airports
Route: SLI V21 SXC
File this flight plan on PilotEdge
Remarks:
Altitude:
(Current/Filed)
4,000ft
Speed:
(Current/Filed)
160kts
Departed: 24-Nov-20 04:14 PM
Arrived: 24-Nov-20 04:47 PM
Distance/Time
Traveled:
32nm/0:32
Distance/Time
To Go:
Arrived

Flight Plot

Page will automatically refresh every two minutes.


Map Options




Map Legend


Flown Route
Filed Route
Departure Airport
Arrival Airport
Navaid (VOR, NDB)
Fix

Horizontal Profiles

Position Reports

Time Latitude Longitude Heading Altitude Ground
Speed
24-Nov-20 15:49 33.667948 -117.870824 221 59ft 0kts
24-Nov-20 15:50 33.667948 -117.870824 221 59ft 0kts
24-Nov-20 15:51 33.667948 -117.870824 221 59ft 0kts
24-Nov-20 15:52 33.667948 -117.870824 221 59ft 0kts
24-Nov-20 15:53 33.667948 -117.870824 221 59ft 0kts
24-Nov-20 15:54 33.667948 -117.870824 221 59ft 0kts
24-Nov-20 15:55 33.667948 -117.870824 221 59ft 0kts
24-Nov-20 15:56 33.667948 -117.870824 221 59ft 0kts
24-Nov-20 15:57 33.667948 -117.870824 221 59ft 0kts
24-Nov-20 15:58 33.667948 -117.870824 221 59ft 0kts
24-Nov-20 15:59 33.667948 -117.870824 221 59ft 0kts
24-Nov-20 16:00 33.667948 -117.870824 221 59ft 0kts
24-Nov-20 16:01 33.667948 -117.870824 221 59ft 0kts
24-Nov-20 16:02 33.667948 -117.870824 221 59ft 0kts
24-Nov-20 16:03 33.667948 -117.870824 221 59ft 0kts
24-Nov-20 16:04 33.667948 -117.870824 221 59ft 0kts
24-Nov-20 16:05 33.667948 -117.870824 221 59ft 0kts
24-Nov-20 16:06 33.667927 -117.870850 244 59ft 1kts
24-Nov-20 16:07 33.670175 -117.869909 43 59ft 19kts
24-Nov-20 16:08 33.673658 -117.867180 31 59ft 0kts
24-Nov-20 16:09 33.674741 -117.866691 23 59ft 14kts
24-Nov-20 16:11 33.678844 -117.864074 27 59ft 13kts
24-Nov-20 16:12 33.679937 -117.863630 309 59ft 0kts
24-Nov-20 16:13 33.679937 -117.863631 307 59ft 0kts
24-Nov-20 16:14 33.674867 -117.867655 213 137ft 94kts
24-Nov-20 16:15 33.651750 -117.900569 235 1107ft 146kts
24-Nov-20 16:16 33.628083 -117.940597 236 2082ft 144kts
24-Nov-20 16:17 33.607308 -117.980282 238 3044ft 122kts
24-Nov-20 16:18 33.589456 -118.014218 238 3978ft 121kts
24-Nov-20 16:19 33.570342 -118.050204 238 4024ft 151kts
24-Nov-20 16:20 33.546194 -118.096098 238 3999ft 164kts
24-Nov-20 16:21 33.521709 -118.142212 238 4002ft 164kts
24-Nov-20 16:22 33.496919 -118.188573 238 4007ft 165kts
24-Nov-20 16:23 33.472305 -118.234469 238 4012ft 165kts
24-Nov-20 16:24 33.447338 -118.281037 238 4002ft 165kts
24-Nov-20 16:25 33.422454 -118.327545 239 4008ft 166kts
24-Nov-20 16:26 33.397452 -118.374167 238 4008ft 166kts
24-Nov-20 16:27 33.381179 -118.422658 302 4002ft 164kts
24-Nov-20 16:27 33.413837 -118.416497 53 4013ft 173kts
24-Nov-20 16:29 33.465928 -118.401995 5 4006ft 169kts
24-Nov-20 16:29 33.504676 -118.397419 342 3987ft 166kts
24-Nov-20 16:30 33.539879 -118.432331 318 3999ft 165kts
24-Nov-20 16:31 33.569919 -118.454468 23 3651ft 113kts
24-Nov-20 16:33 33.556294 -118.429635 182 3394ft 120kts
24-Nov-20 16:33 33.530481 -118.420246 150 3391ft 120kts
24-Nov-20 16:34 33.501948 -118.399426 164 3388ft 119kts
24-Nov-20 16:35 33.469913 -118.404298 191 3395ft 117kts
24-Nov-20 16:36 33.438244 -118.409874 190 3388ft 117kts
24-Nov-20 16:37 33.413445 -118.394637 120 2450ft 117kts
24-Nov-20 16:38 33.403733 -118.419601 245 2225ft 74kts
24-Nov-20 16:39 33.407826 -118.411007 89 3482ft 117kts
24-Nov-20 16:40 33.408976 -118.379673 21 4529ft 116kts
24-Nov-20 16:41 33.426807 -118.384780 241 4367ft 142kts
24-Nov-20 16:42 33.402327 -118.421406 243 1872ft 102kts
24-Nov-20 16:43 33.411127 -118.429470 71 3254ft 115kts
24-Nov-20 16:44 33.419866 -118.390579 99 2969ft 120kts
24-Nov-20 16:45 33.409462 -118.393718 289 2313ft 87kts
24-Nov-20 16:46 33.405257 -118.415399 225 1583ft 6kts
24-Nov-20 16:47 33.403829 -118.416907 98 1598ft 0kts
24-Nov-20 16:48 33.403879 -118.415080 320 1587ft 5kts
24-Nov-20 16:49 33.403822 -118.415168 130 1588ft 0kts

Navigation Log

Ident Type
Flight plan parsing failed, navigation log unavailable